Time;durP1;ratioP1;P1;durP2;ratioP2;P2;SDS_P1;SDS_P2;PMS_P1;PMS_P2;Temp;Humidity;BMP_temperature;BMP_pressure;BME280_temperature;BME280_humidity;BME280_pressure;Samples;Min_cycle;Max_cycle;Signal;HPM_P1;HPM_P2
2023/01/08 00:00:05;;;;;;;10.00;6.07;;;;;;;1.17;100.00;95432.84;1038544;28;20053;-70
2023/01/08 00:00:36;;;;;;;8.80;5.75;;;;;;;1.18;100.00;95420.72;1038989;28;20034;-70
2023/01/08 00:01:10;;;;;;;8.68;5.38;;;;;;;1.16;100.00;95426.09;1035972;28;20935;-68
2023/01/08 00:01:41;;;;;;;11.18;6.05;;;;;;;1.13;100.00;95423.94;1034600;28;20040;-67
2023/01/08 00:02:11;;;;;;;8.80;6.00;;;;;;;1.13;100.00;95421.34;1030338;28;20893;-69
2023/01/08 00:02:42;;;;;;;8.07;5.43;;;;;;;1.12;100.00;95424.94;1030139;28;20046;-67
2023/01/08 00:03:12;;;;;;;10.50;5.57;;;;;;;1.14;100.00;95428.13;1026790;28;20027;-69
2023/01/08 00:03:43;;;;;;;8.60;5.32;;;;;;;1.16;100.00;95430.47;1030416;28;20069;-70
2023/01/08 00:04:14;;;;;;;9.30;5.75;;;;;;;1.16;100.00;95425.31;1031921;28;20018;-70
2023/01/08 00:04:45;;;;;;;8.45;5.75;;;;;;;1.16;100.00;95428.69;1030833;28;20132;-68
2023/01/08 00:05:15;;;;;;;10.82;6.53;;;;;;;1.15;100.00;95428.91;1038468;28;20876;-70
2023/01/08 00:05:46;;;;;;;10.52;5.40;;;;;;;1.09;100.00;95420.19;1033902;28;20049;-68
2023/01/08 00:06:17;;;;;;;13.88;5.55;;;;;;;1.15;100.00;95424.53;1033291;28;20466;-68
2023/01/08 00:06:48;;;;;;;9.85;5.95;;;;;;;1.14;100.00;95425.53;1030398;28;20641;-66
2023/01/08 00:07:18;;;;;;;11.00;5.80;;;;;;;1.14;100.00;95422.94;1027948;28;20268;-67
2023/01/08 00:07:49;;;;;;;9.60;6.00;;;;;;;1.13;100.00;95425.72;1022508;28;20121;-71
2023/01/08 00:08:19;;;;;;;10.32;6.10;;;;;;;1.14;100.00;95429.88;1022663;29;20026;-70
2023/01/08 00:08:50;;;;;;;8.90;5.32;;;;;;;1.16;100.00;95426.09;1026521;28;20117;-67
2023/01/08 00:09:20;;;;;;;11.32;5.78;;;;;;;1.18;100.00;95429.25;1029733;28;20022;-71
2023/01/08 00:09:51;;;;;;;7.88;5.15;;;;;;;1.21;100.00;95422.06;1030642;28;20027;-70
2023/01/08 00:10:21;;;;;;;8.07;5.10;;;;;;;1.20;100.00;95416.13;1026463;28;20054;-67
2023/01/08 00:10:55;;;;;;;8.65;5.43;;;;;;;1.21;100.00;95422.91;1030518;28;20022;-70
2023/01/08 00:11:25;;;;;;;8.08;5.16;;;;;;;1.24;100.00;95422.47;1042197;28;20016;-68
2023/01/08 00:11:56;;;;;;;9.95;5.72;;;;;;;1.25;100.00;95416.28;1042719;28;20032;-66
2023/01/08 00:12:26;;;;;;;7.05;4.63;;;;;;;1.33;100.00;95420.41;1038333;28;20103;-66
2023/01/08 00:12:57;;;;;;;9.88;5.38;;;;;;;1.31;100.00;95417.25;1032857;28;20026;-71
2023/01/08 00:13:27;;;;;;;9.45;5.55;;;;;;;1.31;100.00;95423.19;1030327;28;20125;-68
2023/01/08 00:13:57;;;;;;;8.10;4.93;;;;;;;1.32;100.00;95418.81;1030923;28;20030;-68
2023/01/08 00:14:29;;;;;;;12.50;4.82;;;;;;;1.32;100.00;95421.41;1036050;28;20050;-67
2023/01/08 00:14:59;;;;;;;8.50;5.28;;;;;;;1.34;100.00;95416.78;1038746;28;20097;-68
2023/01/08 00:15:30;;;;;;;9.57;4.90;;;;;;;1.31;100.00;95412.09;1038550;28;20021;-68
2023/01/08 00:16:04;;;;;;;9.95;5.70;;;;;;;1.31;100.00;95409.50;1032214;28;20492;-70
2023/01/08 00:16:35;;;;;;;10.73;5.22;;;;;;;1.35;100.00;95418.41;1022782;29;20103;-69
2023/01/08 00:17:05;;;;;;;9.88;4.80;;;;;;;1.33;100.00;95422.97;1019208;29;20370;-67
2023/01/08 00:17:36;;;;;;;7.13;4.47;;;;;;;1.32;100.00;95417.03;1024211;28;20034;-67
2023/01/08 00:18:06;;;;;;;9.45;4.90;;;;;;;1.20;100.00;95394.66;1033542;28;20022;-71
2023/01/08 00:18:37;;;;;;;8.27;5.10;;;;;;;1.32;100.00;95421.41;1038617;28;20034;-70
2023/01/08 00:19:07;;;;;;;9.13;5.30;;;;;;;1.35;100.00;95418.41;1034505;28;20022;-67
2023/01/08 00:19:40;;;;;;;8.45;5.25;;;;;;;1.35;100.00;95415.81;1036063;28;20025;-69
2023/01/08 00:20:11;;;;;;;8.43;5.00;;;;;;;1.37;100.00;95416.38;1035428;28;20104;-68
2023/01/08 00:20:42;;;;;;;7.53;4.55;;;;;;;1.39;100.00;95416.97;1030991;28;20289;-67
2023/01/08 00:21:13;;;;;;;7.93;4.38;;;;;;;1.32;100.00;95406.69;1033550;28;20060;-71
2023/01/08 00:21:43;;;;;;;8.18;4.75;;;;;;;1.49;100.00;95406.16;1033066;28;20268;-73
2023/01/08 00:22:14;;;;;;;9.85;5.28;;;;;;;1.47;100.00;95415.91;1030426;28;20096;-69
2023/01/08 00:22:47;;;;;;;9.65;4.95;;;;;;;1.49;100.00;95408.72;1029002;28;20081;-68
2023/01/08 00:23:18;;;;;;;7.85;4.32;;;;;;;1.53;100.00;95404.69;1034274;28;20165;-66
2023/01/08 00:23:48;;;;;;;6.97;4.43;;;;;;;1.63;100.00;95410.19;1035090;28;21120;-69
2023/01/08 00:24:19;;;;;;;7.80;3.92;;;;;;;1.63;100.00;95410.19;1037962;28;20048;-73
2023/01/08 00:24:50;;;;;;;7.95;4.60;;;;;;;1.61;100.00;95412.16;1032729;28;20033;-67
2023/01/08 00:25:20;;;;;;;8.05;4.63;;;;;;;1.56;100.00;95412.81;1030660;28;20092;-68
2023/01/08 00:25:51;;;;;;;7.97;4.70;;;;;;;1.57;100.00;95416.19;1033871;28;20026;-69
2023/01/08 00:26:21;;;;;;;8.30;4.07;;;;;;;1.56;100.00;95414.63;1032211;28;20030;-69
2023/01/08 00:26:52;;;;;;;8.20;4.47;;;;;;;1.55;100.00;95415.63;1034612;28;20614;-69
2023/01/08 00:27:22;;;;;;;8.45;4.82;;;;;;;1.55;100.00;95421.59;1042656;28;20021;-69
2023/01/08 00:27:53;;;;;;;6.57;4.38;;;;;;;1.58;100.00;95417.78;1041106;28;20032;-69
2023/01/08 00:28:23;;;;;;;8.65;4.43;;;;;;;1.59;100.00;95414.97;1041668;28;20032;-68
2023/01/08 00:28:54;;;;;;;8.10;4.75;;;;;;;1.52;100.00;95419.44;1042741;28;20047;-69
2023/01/08 00:29:24;;;;;;;9.70;4.75;;;;;;;1.57;100.00;95431.72;1030036;28;20030;-67
2023/01/08 00:29:54;;;;;;;9.07;5.13;;;;;;;1.58;100.00;95418.59;1028373;28;20640;-69
2023/01/08 00:30:25;;;;;;;7.03;4.28;;;;;;;1.58;100.00;95423.75;1030697;28;20022;-69
2023/01/08 00:30:55;;;;;;;7.75;4.38;;;;;;;1.53;100.00;95420.22;1030648;28;20034;-68
2023/01/08 00:31:26;;;;;;;7.80;4.55;;;;;;;1.53;100.00;95426.19;1040046;28;20013;-69
2023/01/08 00:31:56;;;;;;;8.40;4.82;;;;;;;1.48;100.00;95423.44;1042945;28;20024;-71
2023/01/08 00:32:27;;;;;;;8.52;4.93;;;;;;;1.48;100.00;95423.44;1038203;28;20028;-70
2023/01/08 00:32:57;;;;;;;6.45;4.32;;;;;;;1.48;100.00;95426.03;1037201;28;20052;-69
2023/01/08 00:33:28;;;;;;;7.72;4.75;;;;;;;1.45;100.00;95426.47;1037400;28;20117;-67
2023/01/08 00:33:58;;;;;;;7.72;4.95;;;;;;;1.45;100.00;95421.28;1038801;28;20196;-68
2023/01/08 00:34:29;;;;;;;7.90;4.85;;;;;;;1.45;100.00;95423.88;1042966;28;20509;-69
2023/01/08 00:35:00;;;;;;;7.50;4.97;;;;;;;1.45;100.00;95418.72;1042563;28;20025;-72
2023/01/08 00:35:31;;;;;;;10.64;5.24;;;;;;;1.44;100.00;95427.44;1038080;28;20041;-69
2023/01/08 00:36:12;;;;;;;8.13;4.93;;;;;;;1.35;100.00;95414.00;1038658;28;20411;-71
2023/01/08 00:36:42;;;;;;;7.18;4.26;;;;;;;1.37;100.00;95426.72;1034055;28;20549;-68
2023/01/08 00:37:13;;;;;;;8.30;4.40;;;;;;;1.35;100.00;95423.56;1034732;28;20030;-71
2023/01/08 00:37:44;;;;;;;6.70;4.20;;;;;;;1.31;100.00;95419.84;1030181;28;20036;-67
2023/01/08 00:38:15;;;;;;;7.78;4.70;;;;;;;1.31;100.00;95423.19;1030831;28;20276;-68
2023/01/08 00:38:45;;;;;;;6.95;4.53;;;;;;;1.30;100.00;95418.22;1038494;28;20024;-72
2023/01/08 00:39:16;;;;;;;6.68;4.05;;;;;;;1.28;100.00;95420.25;1027783;28;20058;-67
2023/01/08 00:39:46;;;;;;;9.25;4.60;;;;;;;1.24;100.00;95411.31;1030327;28;20034;-68
2023/01/08 00:40:17;;;;;;;8.63;4.65;;;;;;;1.23;100.00;95415.69;1026321;28;20019;-68
2023/01/08 00:40:47;;;;;;;8.10;5.20;;;;;;;1.07;100.00;95395.56;1022120;28;20038;-70
2023/01/08 00:41:18;;;;;;;7.63;4.55;;;;;;;1.20;100.00;95410.94;1018719;28;20388;-68
2023/01/08 00:41:48;;;;;;;8.05;4.85;;;;;;;1.27;100.00;95410.91;1025976;28;20500;-67
2023/01/08 00:42:19;;;;;;;7.72;4.10;;;;;;;1.25;100.00;95412.91;1022456;28;20509;-73
2023/01/08 00:42:49;;;;;;;7.35;4.50;;;;;;;1.24;100.00;95417.31;1030368;28;20077;-71
2023/01/08 00:43:20;;;;;;;6.75;4.47;;;;;;;1.20;100.00;95413.53;1038412;28;20111;-69
2023/01/08 00:43:50;;;;;;;6.05;4.35;;;;;;;1.19;100.00;95411.97;1038465;28;20017;-68
2023/01/08 00:44:21;;;;;;;8.38;4.85;;;;;;;1.21;100.00;95411.75;1038393;28;20458;-66
2023/01/08 00:44:51;;;;;;;7.53;4.65;;;;;;;1.18;100.00;95418.16;1038378;28;20030;-71
2023/01/08 00:45:22;;;;;;;6.68;4.55;;;;;;;1.22;100.00;95418.50;1038628;28;20576;-72
2023/01/08 00:45:52;;;;;;;8.45;4.93;;;;;;;1.22;100.00;95413.34;1038061;28;20018;-67
2023/01/08 00:46:23;;;;;;;6.25;4.57;;;;;;;1.22;100.00;95418.50;1038754;28;20085;-69
2023/01/08 00:46:53;;;;;;;9.52;4.88;;;;;;;1.21;100.00;95422.91;1038589;28;20045;-67
2023/01/08 00:47:24;;;;;;;6.93;4.53;;;;;;;1.27;100.00;95418.66;1038332;28;20021;-71
2023/01/08 00:47:54;;;;;;;7.72;4.60;;;;;;;1.25;100.00;95418.88;1038810;28;20017;-70
2023/01/08 00:48:25;;;;;;;6.60;4.28;;;;;;;1.27;100.00;95421.25;1038425;28;20021;-71
2023/01/08 00:48:55;;;;;;;7.80;4.47;;;;;;;1.28;100.00;95412.50;1034536;28;20025;-68
2023/01/08 00:49:25;;;;;;;6.85;4.50;;;;;;;1.27;100.00;95411.69;1034567;28;20018;-69
2023/01/08 00:49:56;;;;;;;7.55;4.65;;;;;;;1.28;100.00;95412.50;1034511;28;20057;-68
2023/01/08 00:50:26;;;;;;;7.30;4.57;;;;;;;1.31;100.00;95417.25;1034414;28;20492;-70
2023/01/08 00:50:57;;;;;;;7.15;3.83;;;;;;;1.30;100.00;95407.88;1038895;28;20017;-68
2023/01/08 00:51:27;;;;;;;7.13;4.43;;;;;;;1.27;100.00;95416.06;1038381;28;20033;-67
2023/01/08 00:51:58;;;;;;;9.13;4.30;;;;;;;1.27;100.00;95411.69;1038292;28;20535;-69
2023/01/08 00:52:28;;;;;;;8.13;4.03;;;;;;;1.27;100.00;95403.94;1038723;28;20025;-67
2023/01/08 00:52:59;;;;;;;10.50;5.13;;;;;;;1.32;100.00;95406.69;1038473;28;20025;-69
2023/01/08 00:53:30;;;;;;;9.07;4.95;;;;;;;1.30;100.00;95413.06;1034686;28;20162;-71
2023/01/08 00:54:00;;;;;;;7.13;4.80;;;;;;;1.29;100.00;95408.91;1029997;28;20309;-68
2023/01/08 00:54:31;;;;;;;6.88;4.30;;;;;;;1.28;100.00;95399.56;1026467;28;20031;-69
2023/01/08 00:55:01;;;;;;;8.23;4.60;;;;;;;1.28;100.00;95402.16;1022588;28;20050;-67
2023/01/08 00:55:32;;;;;;;7.80;4.97;;;;;;;1.27;100.00;95400.56;1024967;28;20091;-66
2023/01/08 00:56:07;;;;;;;9.20;4.50;;;;;;;1.28;100.00;95394.41;1026004;28;20037;-71
2023/01/08 00:56:37;;;;;;;7.22;4.43;;;;;;;1.26;100.00;95391.25;1018637;29;20020;-67
2023/01/08 00:57:08;;;;;;;7.45;4.28;;;;;;;1.31;100.00;95394.00;1022283;29;20271;-66
2023/01/08 00:57:38;;;;;;;7.10;4.22;;;;;;;1.42;100.00;95388.09;1026496;28;20042;-70
2023/01/08 00:58:10;;;;;;;6.78;3.70;;;;;;;1.41;100.00;95389.13;1030431;28;20014;-71
2023/01/08 00:58:40;;;;;;;7.60;3.90;;;;;;;1.48;100.00;95392.44;1026279;28;20031;-69
2023/01/08 00:59:11;;;;;;;6.85;4.13;;;;;;;1.57;100.00;95380.78;1026662;28;20031;-68
2023/01/08 00:59:41;;;;;;;7.22;4.40;;;;;;;1.55;100.00;95390.56;1022646;28;20121;-66
2023/01/08 01:00:13;;;;;;;7.28;4.20;;;;;;;1.54;100.00;95386.41;1030938;28;20027;-67
2023/01/08 01:00:43;;;;;;;6.28;3.40;;;;;;;1.58;100.00;95392.72;1029577;28;20018;-66
2023/01/08 01:01:14;;;;;;;6.40;3.97;;;;;;;1.57;100.00;95385.94;1026656;28;20724;-69
2023/01/08 01:01:44;;;;;;;10.35;4.07;;;;;;;1.54;100.00;95393.34;1026971;28;20031;-71
2023/01/08 01:02:15;;;;;;;6.07;3.60;;;;;;;1.50;100.00;95397.38;1026500;28;20547;-67
2023/01/08 01:02:45;;;;;;;6.85;3.83;;;;;;;1.49;100.00;95388.84;1030117;28;20022;-69
2023/01/08 01:03:16;;;;;;;8.57;3.58;;;;;;;1.55;100.00;95398.31;1034717;28;20018;-67
2023/01/08 01:03:46;;;;;;;6.60;3.72;;;;;;;1.53;100.00;95389.19;1038049;28;20065;-70
2023/01/08 01:04:17;;;;;;;6.28;4.28;;;;;;;1.54;100.00;95396.75;1033895;28;20018;-75
2023/01/08 01:04:47;;;;;;;8.80;4.10;;;;;;;1.51;100.00;95397.19;1034583;28;20133;-68
2023/01/08 01:05:18;;;;;;;9.35;3.63;;;;;;;1.52;100.00;95391.00;1034489;28;20010;-67
2023/01/08 01:05:48;;;;;;;6.55;4.07;;;;;;;1.52;100.00;95396.16;1025614;28;20662;-68
2023/01/08 01:06:19;;;;;;;6.50;3.75;;;;;;;1.52;100.00;95388.41;1034432;28;20021;-72
2023/01/08 01:06:49;;;;;;;7.80;3.70;;;;;;;1.49;100.00;95383.66;1030189;28;20030;-68
2023/01/08 01:07:20;;;;;;;6.60;3.88;;;;;;;1.51;100.00;95380.84;1027152;28;20023;-66
2023/01/08 01:07:50;;;;;;;6.35;4.18;;;;;;;1.48;100.00;95382.09;1034196;28;20033;-71
2023/01/08 01:08:21;;;;;;;5.68;3.63;;;;;;;1.48;100.00;95381.31;1034357;28;20248;-68
2023/01/08 01:08:51;;;;;;;6.22;3.75;;;;;;;1.45;100.00;95377.34;1034473;28;20568;-66
2023/01/08 01:09:22;;;;;;;7.43;4.20;;;;;;;1.45;100.00;95376.56;1037389;28;20024;-68
2023/01/08 01:09:52;;;;;;;7.13;4.30;;;;;;;1.41;100.00;95376.19;1034516;28;20022;-71
2023/01/08 01:10:23;;;;;;;5.95;4.00;;;;;;;1.36;100.00;95374.22;1034336;28;20022;-68
2023/01/08 01:10:53;;;;;;;6.28;3.60;;;;;;;1.37;100.00;95378.38;1034211;28;20052;-66
2023/01/08 01:11:25;;;;;;;7.55;3.97;;;;;;;1.34;100.00;95375.44;1030488;28;20023;-65
2023/01/08 01:11:56;;;;;;;7.43;4.40;;;;;;;1.33;100.00;95385.00;1026167;28;20054;-68
2023/01/08 01:12:27;;;;;;;6.40;4.00;;;;;;;1.29;100.00;95370.13;1026202;28;20269;-73
2023/01/08 01:12:57;;;;;;;5.78;3.88;;;;;;;1.30;100.00;95376.88;1022529;29;20804;-67
2023/01/08 01:13:28;;;;;;;7.72;4.60;;;;;;;1.29;100.00;95378.69;1023056;28;20022;-68
2023/01/08 01:13:58;;;;;;;7.22;4.18;;;;;;;1.31;100.00;95373.31;1030620;28;20271;-68
2023/01/08 01:14:28;;;;;;;5.25;3.97;;;;;;;1.32;100.00;95372.31;1025735;28;20031;-71
2023/01/08 01:14:59;;;;;;;8.43;4.03;;;;;;;1.29;100.00;95372.72;1030515;28;20150;-69
2023/01/08 01:15:29;;;;;;;7.93;4.97;;;;;;;1.27;100.00;95361.78;1026479;28;20389;-66
2023/01/08 01:16:00;;;;;;;7.82;4.47;;;;;;;1.21;100.00;95360.06;1026365;28;20015;-67
2023/01/08 01:16:31;;;;;;;8.80;4.30;;;;;;;1.22;100.00;95367.63;1030491;28;20049;-71
2023/01/08 01:17:01;;;;;;;8.45;4.70;;;;;;;1.20;100.00;95366.25;1030912;28;20025;-68
2023/01/08 01:17:32;;;;;;;7.05;4.20;;;;;;;1.17;100.00;95370.84;1037974;28;20017;-67
2023/01/08 01:18:02;;;;;;;5.93;4.50;;;;;;;1.15;100.00;95361.72;1034743;28;20024;-67
2023/01/08 01:18:33;;;;;;;8.10;4.60;;;;;;;1.09;100.00;95368.50;1034835;28;20101;-68
2023/01/08 01:19:03;;;;;;;8.18;4.57;;;;;;;1.11;100.00;95369.09;1026434;28;20073;-69
2023/01/08 01:19:34;;;;;;;8.52;5.35;;;;;;;1.12;100.00;95372.47;1032990;28;20017;-69
2023/01/08 01:20:06;;;;;;;7.06;4.38;;;;;;;1.12;100.00;95373.25;1021528;29;20448;-69
2023/01/08 01:20:37;;;;;;;8.07;4.85;;;;;;;1.11;100.00;95370.91;1026634;28;20074;-69
2023/01/08 01:21:29;;;;;;;8.60;4.68;;;;;;;1.10;100.00;95374.47;1026627;28;20269;-69
2023/01/08 01:22:00;;;;;;;5.48;4.42;;;;;;;1.08;100.00;95366.16;1029046;28;20025;-73
2023/01/08 01:22:30;;;;;;;7.47;4.47;;;;;;;1.11;100.00;95365.75;1025610;28;20019;-71
2023/01/08 01:23:02;;;;;;;7.25;4.38;;;;;;;1.09;100.00;95367.72;1032789;28;20192;-69
2023/01/08 01:23:33;;;;;;;8.36;4.48;;;;;;;1.06;100.00;95368.16;1030758;28;20053;-71
2023/01/08 01:24:04;;;;;;;6.78;4.55;;;;;;;1.02;100.00;95351.50;1030555;28;20038;-68
2023/01/08 01:24:35;;;;;;;7.38;4.60;;;;;;;0.93;100.00;95343.22;1032696;28;20034;-68
2023/01/08 01:25:05;;;;;;;6.70;4.35;;;;;;;1.04;100.00;95354.66;1035128;28;20061;-70
2023/01/08 01:25:36;;;;;;;9.38;4.88;;;;;;;1.03;100.00;95361.59;1037750;28;20118;-69
2023/01/08 01:26:14;;;;;;;5.70;3.90;;;;;;;1.03;100.00;95363.41;1034669;28;20431;-73
2023/01/08 01:26:45;;;;;;;6.90;3.90;;;;;;;1.04;100.00;95360.63;1038465;28;20040;-70
2023/01/08 01:27:15;;;;;;;8.25;4.60;;;;;;;1.03;100.00;95363.41;1038398;28;20037;-68
2023/01/08 01:27:46;;;;;;;8.15;4.38;;;;;;;1.05;100.00;95367.38;1035093;28;20125;-67
2023/01/08 01:28:16;;;;;;;8.05;4.57;;;;;;;1.09;100.00;95363.34;1037442;28;20025;-68
2023/01/08 01:28:48;;;;;;;9.05;4.53;;;;;;;1.03;100.00;95359.03;1037499;28;20029;-70
2023/01/08 01:29:18;;;;;;;7.46;4.44;;;;;;;1.06;100.00;95366.34;1033075;28;20663;-69
2023/01/08 01:29:49;;;;;;;6.43;4.45;;;;;;;0.98;100.00;95355.50;1032833;28;20034;-70
2023/01/08 01:30:19;;;;;;;6.65;4.30;;;;;;;1.05;100.00;95367.38;1038555;28;20037;-69
2023/01/08 01:30:54;;;;;;;7.80;4.20;;;;;;;1.07;100.00;95365.34;1022325;28;20027;-68
2023/01/08 01:31:26;;;;;;;7.60;4.38;;;;;;;1.05;100.00;95367.38;1026085;28;20026;-69
2023/01/08 01:31:57;;;;;;;6.98;4.02;;;;;;;1.13;100.00;95371.47;1032647;28;20030;-70
2023/01/08 01:32:27;;;;;;;8.00;4.07;;;;;;;1.12;100.00;95370.69;1030118;28;20037;-71
2023/01/08 01:32:58;;;;;;;10.38;4.07;;;;;;;1.12;100.00;95373.25;1032676;28;20084;-69
2023/01/08 01:33:28;;;;;;;5.57;3.65;;;;;;;1.15;100.00;95370.25;1031934;28;20037;-67
2023/01/08 01:33:59;;;;;;;5.07;3.60;;;;;;;1.16;100.00;95364.06;1034471;28;20041;-69
2023/01/08 01:34:29;;;;;;;7.07;4.00;;;;;;;1.13;100.00;95369.66;1030621;28;20060;-72
2023/01/08 01:35:00;;;;;;;7.47;4.30;;;;;;;1.16;100.00;95374.41;1025712;28;20071;-69
2023/01/08 01:35:30;;;;;;;5.82;3.75;;;;;;;1.16;100.00;95361.50;1025869;28;20079;-69
2023/01/08 01:36:02;;;;;;;6.57;3.92;;;;;;;1.17;100.00;95365.69;1026131;28;20042;-68
2023/01/08 01:36:32;;;;;;;8.48;4.18;;;;;;;1.15;100.00;95362.50;1027049;28;20039;-69
2023/01/08 01:37:04;;;;;;;9.35;4.40;;;;;;;1.14;100.00;95371.28;1033760;28;20065;-67
2023/01/08 01:37:34;;;;;;;7.10;4.05;;;;;;;1.15;100.00;95361.72;1033377;28;20423;-69
2023/01/08 01:38:04;;;;;;;9.43;4.00;;;;;;;1.16;100.00;95358.13;1040343;28;20265;-68
2023/01/08 01:38:35;;;;;;;7.93;3.80;;;;;;;1.14;100.00;95368.69;1037340;28;20144;-67
2023/01/08 01:39:05;;;;;;;7.38;3.80;;;;;;;1.15;100.00;95367.66;1035474;28;20032;-71
2023/01/08 01:39:36;;;;;;;7.70;3.88;;;;;;;1.15;100.00;95372.84;1027939;28;20053;-69
2023/01/08 01:40:07;;;;;;;7.90;3.97;;;;;;;1.14;100.00;95373.03;1027777;28;20022;-67
2023/01/08 01:40:41;;;;;;;5.97;4.07;;;;;;;1.14;100.00;95368.69;1029695;28;20035;-69
2023/01/08 01:41:25;;;;;;;7.02;4.44;;;;;;;1.12;100.00;95368.09;1026166;28;20643;-68
2023/01/08 01:41:55;;;;;;;8.54;4.12;;;;;;;1.12;100.00;95372.47;1028224;28;20059;-69
2023/01/08 01:42:42;;;;;;;7.43;4.25;;;;;;;1.12;100.00;95372.47;1029987;28;20035;-66
2023/01/08 01:43:13;;;;;;;6.14;3.88;;;;;;;1.18;100.00;95376.81;1029648;28;20034;-70
2023/01/08 01:43:44;;;;;;;6.57;4.13;;;;;;;1.17;100.00;95375.19;1030217;28;20030;-71
2023/01/08 01:44:45;;;;;;;5.55;3.80;;;;;;;1.16;100.00;95368.47;1029331;28;20023;-66
2023/01/08 01:45:23;;;;;;;6.88;3.82;;;;;;;1.16;100.00;95363.28;1032781;28;20025;-72
2023/01/08 01:45:54;;;;;;;5.82;4.00;;;;;;;1.15;100.00;95361.72;1033874;28;20034;-69
2023/01/08 01:46:38;;;;;;;7.15;4.03;;;;;;;1.10;100.00;95362.34;1030012;28;20023;-67
2023/01/08 01:47:21;;;;;;;9.20;3.76;;;;;;;1.13;100.00;95354.16;1023928;28;20308;-69
2023/01/08 01:48:00;;;;;;;7.02;3.68;;;;;;;1.15;100.00;95372.06;1022087;28;20031;-67
2023/01/08 01:48:31;;;;;;;7.30;4.15;;;;;;;1.16;100.00;95361.50;1026403;28;20059;-71
2023/01/08 01:49:13;;;;;;;7.35;3.83;;;;;;;1.15;100.00;95356.56;1030137;28;20065;-67
2023/01/08 01:49:54;;;;;;;5.36;3.60;;;;;;;1.15;100.00;95354.75;1027183;28;20515;-71
2023/01/08 01:50:29;;;;;;;4.80;3.24;;;;;;;1.17;100.00;95354.53;1028285;28;20062;-66
2023/01/08 01:51:00;;;;;;;6.96;3.84;;;;;;;1.16;100.00;95358.91;1026957;28;20026;-72
2023/01/08 01:51:31;;;;;;;7.47;3.95;;;;;;;1.17;100.00;95352.75;1025422;28;20464;-70
2023/01/08 01:52:03;;;;;;;11.75;3.45;;;;;;;1.18;100.00;95356.13;1031630;28;20038;-71
2023/01/08 01:52:36;;;;;;;7.06;3.66;;;;;;;1.20;100.00;95358.50;1031929;28;20273;-68
2023/01/08 01:53:26;;;;;;;5.60;3.82;;;;;;;1.20;100.00;95358.50;1022201;29;20122;-68
2023/01/08 01:53:56;;;;;;;6.60;3.25;;;;;;;1.28;100.00;95359.00;1025329;28;20049;-69
2023/01/08 01:54:27;;;;;;;8.75;3.38;;;;;;;1.24;100.00;95354.47;1027725;28;20054;-71
2023/01/08 01:54:58;;;;;;;6.35;3.38;;;;;;;1.24;100.00;95344.13;1029963;28;20480;-68
2023/01/08 01:55:29;;;;;;;6.20;3.50;;;;;;;1.31;100.00;95353.44;1021842;28;20062;-67
2023/01/08 01:56:00;;;;;;;6.03;3.42;;;;;;;1.30;100.00;95356.22;1025221;28;20034;-68
2023/01/08 01:56:30;;;;;;;4.53;3.10;;;;;;;1.31;100.00;95350.06;1020967;29;20027;-68
2023/01/08 01:57:01;;;;;;;5.90;3.55;;;;;;;1.32;100.00;95346.47;1018118;29;20020;-68
2023/01/08 01:57:32;;;;;;;4.28;3.33;;;;;;;1.32;100.00;95346.47;1026883;28;20022;-70
2023/01/08 01:58:11;;;;;;;5.47;3.33;;;;;;;1.29;100.00;95346.88;1026037;28;20035;-71
2023/01/08 01:58:44;;;;;;;5.48;3.42;;;;;;;1.25;100.00;95336.19;1036271;28;20025;-69
2023/01/08 01:59:18;;;;;;;4.26;3.10;;;;;;;1.27;100.00;95343.72;1025304;28;20039;-68
2023/01/08 01:59:48;;;;;;;5.58;3.64;;;;;;;1.32;100.00;95341.28;1026037;28;20033;-67
2023/01/08 02:00:28;;;;;;;6.30;3.20;;;;;;;1.24;100.00;95344.13;1021972;28;20042;-72
2023/01/08 02:01:01;;;;;;;5.95;3.03;;;;;;;1.27;100.00;95348.88;1018196;29;20673;-69
2023/01/08 02:01:32;;;;;;;5.00;3.58;;;;;;;1.22;100.00;95333.25;1021411;28;20610;-71
2023/01/08 02:02:02;;;;;;;6.07;3.72;;;;;;;1.27;100.00;95349.66;1026059;28;20035;-69
2023/01/08 02:02:33;;;;;;;6.05;3.55;;;;;;;1.25;100.00;95345.72;1022161;28;20521;-67
2023/01/08 02:03:07;;;;;;;5.32;3.44;;;;;;;1.22;100.00;95341.78;1021973;29;20090;-71
2023/01/08 02:03:38;;;;;;;5.78;3.36;;;;;;;1.21;100.00;95341.97;1024508;28;20054;-66
2023/01/08 02:04:11;;;;;;;5.57;3.55;;;;;;;1.20;100.00;95340.41;1025633;28;20035;-70
2023/01/08 02:04:42;;;;;;;4.57;3.28;;;;;;;1.19;100.00;95347.38;1025914;28;20527;-69
2023/01/08 02:05:12;;;;;;;5.78;3.30;;;;;;;1.15;100.00;95341.06;1034007;28;20272;-69
2023/01/08 02:06:13;;;;;;;7.47;4.30;;;;;;;1.08;100.00;95335.94;1025546;28;20027;-71
2023/01/08 02:07:01;;;;;;;8.68;3.86;;;;;;;1.09;100.00;95337.50;1025300;28;20274;-69
2023/01/08 02:07:51;;;;;;;7.92;4.26;;;;;;;1.08;100.00;95335.94;1030921;28;20026;-65
2023/01/08 02:09:01;;;;;;;6.46;4.02;;;;;;;1.06;100.00;95337.94;1027803;28;20035;-68
2023/01/08 02:09:52;;;;;;;8.02;3.50;;;;;;;1.09;100.00;95342.69;1030518;28;20065;-67
2023/01/08 02:10:53;;;;;;;5.02;3.38;;;;;;;1.09;100.00;95337.50;1034480;28;20374;-68
2023/01/08 02:12:16;;;;;;;7.15;3.50;;;;;;;1.17;100.00;95342.44;1028236;28;20041;-69
2023/01/08 02:12:56;;;;;;;4.92;3.30;;;;;;;1.13;100.00;95340.47;1028394;28;20082;-70
2023/01/08 02:13:30;;;;;;;6.05;3.58;;;;;;;1.12;100.00;95336.31;1023154;29;20075;-70
2023/01/08 02:14:06;;;;;;;5.50;3.40;;;;;;;1.10;100.00;95330.53;1017229;29;20156;-69
2023/01/08 02:15:01;;;;;;;5.20;3.50;;;;;;;1.11;100.00;95334.72;1022847;28;20070;-70
2023/01/08 02:15:47;;;;;;;5.10;3.20;;;;;;;1.10;100.00;95331.34;1031337;28;20029;-67
2023/01/08 02:16:57;;;;;;;6.32;3.42;;;;;;;1.20;100.00;95335.22;1024182;28;20408;-67
2023/01/08 02:18:12;;;;;;;5.22;2.88;;;;;;;1.20;100.00;95333.44;1034685;28;20037;-69
2023/01/08 02:18:46;;;;;;;6.12;3.06;;;;;;;1.17;100.00;95326.91;1019027;29;20024;-71
2023/01/08 02:19:49;;;;;;;6.68;3.94;;;;;;;1.20;100.00;95324.91;1010695;29;20112;-70
2023/01/08 02:20:28;;;;;;;6.70;3.80;;;;;;;1.20;100.00;95328.25;1018747;29;20036;-68
2023/01/08 02:21:03;;;;;;;4.64;3.32;;;;;;;1.22;100.00;95326.28;1021850;28;20031;-71
2023/01/08 02:21:48;;;;;;;6.76;3.76;;;;;;;1.23;100.00;95327.06;1029320;28;20038;-69
2023/01/08 02:22:43;;;;;;;6.12;3.70;;;;;;;1.32;100.00;95329.16;1027434;28;20481;-68
2023/01/08 02:23:14;;;;;;;6.70;3.32;;;;;;;1.29;100.00;95326.22;1019773;29;20044;-67
2023/01/08 02:24:06;;;;;;;5.75;3.40;;;;;;;1.29;100.00;95331.38;1019901;29;20027;-68
2023/01/08 02:25:16;;;;;;;5.98;3.58;;;;;;;1.29;100.00;95328.78;1023560;29;20463;-69
2023/01/08 02:26:09;;;;;;;6.56;3.46;;;;;;;1.28;100.00;95327.22;1031305;28;20034;-69
2023/01/08 02:26:39;;;;;;;6.46;3.56;;;;;;;1.29;100.00;95331.38;1031925;28;20026;-68
2023/01/08 02:27:10;;;;;;;7.80;3.60;;;;;;;1.25;100.00;95320.69;1024868;28;20481;-67
2023/01/08 02:27:42;;;;;;;5.35;3.40;;;;;;;1.29;100.00;95328.78;1030024;28;20042;-67
2023/01/08 02:28:12;;;;;;;5.00;3.08;;;;;;;1.33;100.00;95327.34;1027694;28;20027;-67
2023/01/08 02:28:47;;;;;;;6.88;3.53;;;;;;;1.35;100.00;95327.94;1027651;28;20473;-68
2023/01/08 02:29:22;;;;;;;5.76;3.44;;;;;;;1.33;100.00;95320.38;1031791;28;20034;-68
2023/01/08 02:29:53;;;;;;;6.58;3.60;;;;;;;1.38;100.00;95324.94;1027813;28;20099;-68
2023/01/08 02:30:24;;;;;;;5.80;3.40;;;;;;;1.36;100.00;95316.59;1027964;28;20158;-70
2023/01/08 02:30:54;;;;;;;5.40;3.35;;;;;;;1.38;100.00;95325.72;1023594;28;20116;-67
2023/01/08 02:31:25;;;;;;;6.20;3.40;;;;;;;1.38;100.00;95320.53;1026045;28;20363;-68
2023/01/08 02:31:56;;;;;;;5.92;3.50;;;;;;;1.38;100.00;95319.75;1027911;28;20035;-66
2023/01/08 02:32:27;;;;;;;4.15;2.72;;;;;;;1.39;100.00;95318.75;1031768;28;20022;-69
2023/01/08 02:32:57;;;;;;;6.30;3.72;;;;;;;1.37;100.00;95316.34;1023610;29;20023;-68
2023/01/08 02:33:28;;;;;;;6.22;3.17;;;;;;;1.39;100.00;95318.75;1021086;28;20027;-66
2023/01/08 02:33:58;;;;;;;6.80;3.40;;;;;;;1.42;100.00;95315.72;1019829;29;20039;-66
2023/01/08 02:34:31;;;;;;;5.35;2.95;;;;;;;1.43;100.00;95306.97;1024152;29;20186;-67
2023/01/08 02:35:04;;;;;;;6.88;3.54;;;;;;;1.46;100.00;95310.91;1023725;28;20039;-69
2023/01/08 02:36:08;;;;;;;4.16;3.20;;;;;;;1.37;100.00;95295.69;1026941;28;20481;-67
2023/01/08 02:36:42;;;;;;;4.84;3.12;;;;;;;1.40;100.00;95300.41;1027725;28;20523;-71
2023/01/08 02:37:13;;;;;;;6.76;3.34;;;;;;;1.45;100.00;95294.63;1023888;29;20027;-67
2023/01/08 02:37:43;;;;;;;6.70;3.72;;;;;;;1.44;100.00;95292.25;1023410;28;20023;-70